Time;durP1;ratioP1;P1;durP2;ratioP2;P2;SDS_P1;SDS_P2;PMS_P1;PMS_P2;Temp;Humidity;BMP_temperature;BMP_pressure;BME280_temperature;BME280_humidity;BME280_pressure;Samples;Min_cycle;Max_cycle;Signal;HPM_P1;HPM_P2
2023/05/27 00:00:10;;;;;;;40.97;37.97;;;;;;;;;;5028742;28;20418;-81
2023/05/27 00:02:36;;;;;;;91.47;85.17;;;;;;;;;;5023138;28;20454;-81
2023/05/27 00:05:03;;;;;;;65.23;60.30;;;;;;;;;;5025278;28;20414;-81
2023/05/27 00:07:29;;;;;;;63.27;58.63;;;;;;;;;;5023783;28;20443;-81
2023/05/27 00:09:55;;;;;;;80.17;73.97;;;;;;;;;;5019417;28;20477;-81
2023/05/27 00:12:21;;;;;;;92.37;84.63;;;;;;;;;;5023882;28;20459;-82
2023/05/27 00:14:47;;;;;;;44.70;40.80;;;;;;;;;;5035154;28;20450;-80
2023/05/27 00:17:17;;;;;;;140.83;130.30;;;;;;;;;;5030636;28;20475;-80
2023/05/27 00:19:47;;;;;;;47.93;44.13;;;;;;;;;;5026361;28;20431;-81
2023/05/27 00:22:13;;;;;;;158.03;146.03;;;;;;;;;;5019913;28;20496;-81
2023/05/27 00:24:41;;;;;;;228.33;211.80;;;;;;;;;;5014827;28;20528;-81
2023/05/27 00:27:07;;;;;;;241.47;222.67;;;;;;;;;;5021856;28;20555;-81
2023/05/27 00:29:33;;;;;;;342.10;306.83;;;;;;;;;;5024372;28;20421;-81
2023/05/27 00:32:02;;;;;;;515.20;313.43;;;;;;;;;;5016062;28;20462;-81
2023/05/27 00:34:28;;;;;;;545.60;317.27;;;;;;;;;;5022605;28;20431;-83
2023/05/27 00:36:54;;;;;;;567.83;323.40;;;;;;;;;;5025581;28;20422;-81
2023/05/27 00:39:20;;;;;;;415.07;304.67;;;;;;;;;;5021881;28;21229;-81
2023/05/27 00:41:49;;;;;;;312.97;285.57;;;;;;;;;;5025214;28;20441;-80
2023/05/27 00:44:15;;;;;;;129.60;121.97;;;;;;;;;;5016204;28;20533;-80
2023/05/27 00:46:41;;;;;;;77.30;71.80;;;;;;;;;;5022108;28;20438;-80
2023/05/27 00:49:07;;;;;;;92.37;86.13;;;;;;;;;;5029798;28;20741;-80
2023/05/27 00:51:33;;;;;;;48.13;44.47;;;;;;;;;;5023645;28;20461;-82
2023/05/27 00:53:59;;;;;;;19.27;15.03;;;;;;;;;;5024578;28;20565;-82
2023/05/27 00:56:26;;;;;;;13.90;11.17;;;;;;;;;;5015079;28;20438;-83
2023/05/27 00:58:52;;;;;;;31.67;28.70;;;;;;;;;;5028642;28;20582;-82
2023/05/27 01:01:19;;;;;;;213.67;198.30;;;;;;;;;;5012071;28;20438;-81
2023/05/27 01:03:46;;;;;;;13.63;8.47;;;;;;;;;;5015025;28;20509;-83
2023/05/27 01:06:30;;;;;;;19.73;10.77;;;;;;;;;;5014501;28;20945;-82
2023/05/27 01:08:56;;;;;;;15.87;12.40;;;;;;;;;;5015175;28;20969;-82
2023/05/27 01:11:24;;;;;;;218.73;202.70;;;;;;;;;;5025133;28;20466;-81
2023/05/27 01:13:52;;;;;;;288.07;262.20;;;;;;;;;;5032207;28;20457;-82
2023/05/27 01:16:19;;;;;;;244.10;224.80;;;;;;;;;;5029957;28;20526;-83
2023/05/27 01:18:46;;;;;;;94.47;87.23;;;;;;;;;;5047478;28;20448;-82
2023/05/27 01:21:13;;;;;;;125.97;116.93;;;;;;;;;;5050896;28;20430;-81
2023/05/27 01:23:41;;;;;;;257.40;237.30;;;;;;;;;;5018182;28;21195;-82
2023/05/27 01:26:07;;;;;;;293.37;266.37;;;;;;;;;;5013983;28;20541;-81
2023/05/27 01:28:34;;;;;;;271.50;246.90;;;;;;;;;;5019112;28;20447;-81
2023/05/27 01:31:20;;;;;;;27.73;25.10;;;;;;;;;;5021179;28;20471;-82
2023/05/27 01:33:59;;;;;;;307.10;262.13;;;;;;;;;;5027092;28;20515;-80
2023/05/27 01:36:26;;;;;;;150.67;139.60;;;;;;;;;;5026340;28;20592;-81
2023/05/27 01:38:53;;;;;;;320.27;255.70;;;;;;;;;;5018780;28;20434;-81
2023/05/27 01:41:21;;;;;;;278.93;248.67;;;;;;;;;;5015093;28;20447;-82
2023/05/27 01:43:47;;;;;;;16.43;12.47;;;;;;;;;;5017559;28;20442;-82
2023/05/27 01:46:14;;;;;;;19.60;14.73;;;;;;;;;;5012931;28;20442;-81
2023/05/27 01:48:40;;;;;;;291.67;258.97;;;;;;;;;;5016745;28;20458;-81
2023/05/27 01:51:06;;;;;;;174.40;160.90;;;;;;;;;;5024399;28;20458;-82
2023/05/27 01:53:32;;;;;;;125.50;117.03;;;;;;;;;;5020548;28;21011;-81
2023/05/27 01:55:58;;;;;;;287.77;258.30;;;;;;;;;;5020020;28;20467;-83
2023/05/27 01:58:24;;;;;;;133.27;122.83;;;;;;;;;;5018487;28;20473;-80
2023/05/27 02:00:50;;;;;;;22.47;16.80;;;;;;;;;;5022159;28;21075;-80
2023/05/27 02:03:16;;;;;;;285.40;257.53;;;;;;;;;;5011911;28;20446;-82
2023/05/27 02:05:43;;;;;;;277.30;251.50;;;;;;;;;;5019128;28;20447;-81
2023/05/27 02:08:09;;;;;;;98.33;91.20;;;;;;;;;;5019073;28;20454;-81
2023/05/27 02:10:34;;;;;;;21.33;16.90;;;;;;;;;;5020517;28;20944;-81
2023/05/27 02:13:00;;;;;;;21.63;14.27;;;;;;;;;;5020860;28;20461;-80
2023/05/27 02:15:26;;;;;;;17.80;10.70;;;;;;;;;;5020252;28;20450;-80
2023/05/27 02:17:55;;;;;;;13.23;10.17;;;;;;;;;;5020170;28;20504;-80
2023/05/27 02:20:24;;;;;;;30.63;13.40;;;;;;;;;;5017482;28;20425;-80
2023/05/27 02:22:51;;;;;;;21.17;10.60;;;;;;;;;;5017378;28;20435;-81
2023/05/27 02:25:17;;;;;;;10.77;9.80;;;;;;;;;;5023538;28;20438;-80
2023/05/27 02:27:47;;;;;;;15.40;12.23;;;;;;;;;;5019385;28;20454;-79
2023/05/27 02:30:13;;;;;;;17.30;14.43;;;;;;;;;;5023945;28;20542;-79
2023/05/27 02:32:40;;;;;;;22.57;15.23;;;;;;;;;;5030539;28;20486;-81
2023/05/27 02:35:07;;;;;;;17.30;15.13;;;;;;;;;;5024199;28;21167;-81
2023/05/27 02:37:33;;;;;;;15.47;13.77;;;;;;;;;;5001480;28;20443;-82
2023/05/27 02:39:59;;;;;;;20.40;12.93;;;;;;;;;;5013382;28;20422;-82
2023/05/27 02:42:25;;;;;;;20.40;14.27;;;;;;;;;;5028489;28;20502;-81
2023/05/27 02:44:51;;;;;;;22.43;12.30;;;;;;;;;;5032652;28;20807;-81
2023/05/27 02:47:17;;;;;;;30.70;27.60;;;;;;;;;;5023743;28;20458;-82
2023/05/27 02:49:43;;;;;;;18.53;12.70;;;;;;;;;;5024571;28;20516;-82
2023/05/27 02:52:09;;;;;;;45.20;40.57;;;;;;;;;;5021359;28;20465;-82
2023/05/27 02:54:35;;;;;;;22.43;17.10;;;;;;;;;;5025014;28;20421;-82
2023/05/27 02:57:01;;;;;;;39.47;34.50;;;;;;;;;;5024143;28;20542;-82
2023/05/27 02:59:27;;;;;;;53.53;49.60;;;;;;;;;;5024693;28;20457;-82
2023/05/27 03:01:53;;;;;;;37.17;34.07;;;;;;;;;;5025684;28;20442;-82
2023/05/27 03:04:21;;;;;;;59.37;54.70;;;;;;;;;;5027131;28;20451;-82
2023/05/27 03:06:47;;;;;;;154.23;140.73;;;;;;;;;;5023405;28;20445;-82
2023/05/27 03:09:14;;;;;;;208.27;188.53;;;;;;;;;;5024634;28;20508;-81
2023/05/27 03:11:40;;;;;;;293.57;218.63;;;;;;;;;;5038099;28;20466;-82
2023/05/27 03:14:06;;;;;;;382.00;219.97;;;;;;;;;;5035259;28;20451;-82
2023/05/27 03:16:32;;;;;;;446.27;227.43;;;;;;;;;;5052923;28;20445;-83
2023/05/27 03:18:58;;;;;;;455.00;245.38;;;;;;;;;;5030984;28;20607;-82
2023/05/27 03:21:24;;;;;;;480.30;242.68;;;;;;;;;;5039511;28;20302;-81
2023/05/27 03:23:51;;;;;;;441.85;242.98;;;;;;;;;;5019505;28;20312;-80
2023/05/27 03:26:17;;;;;;;473.17;244.53;;;;;;;;;;5026062;28;20270;-81
2023/05/27 03:28:43;;;;;;;484.63;239.90;;;;;;;;;;5023920;28;20450;-81
2023/05/27 03:31:12;;;;;;;405.50;241.17;;;;;;;;;;5027233;28;20622;-81
2023/05/27 03:33:38;;;;;;;434.50;242.63;;;;;;;;;;5020610;28;21274;-81
2023/05/27 03:36:04;;;;;;;425.60;235.95;;;;;;;;;;5023773;28;20942;-81
2023/05/27 03:38:30;;;;;;;242.03;217.83;;;;;;;;;;5018803;28;20204;-81
2023/05/27 03:40:56;;;;;;;235.93;214.40;;;;;;;;;;5026270;28;20836;-82
2023/05/27 03:43:22;;;;;;;108.77;100.63;;;;;;;;;;5022781;28;20434;-81
2023/05/27 03:45:48;;;;;;;46.20;41.80;;;;;;;;;;5025972;28;21011;-81
2023/05/27 03:48:14;;;;;;;98.67;91.60;;;;;;;;;;5016558;28;20469;-81
2023/05/27 03:50:40;;;;;;;123.57;114.03;;;;;;;;;;5021114;28;20850;-81
2023/05/27 03:53:06;;;;;;;120.60;111.30;;;;;;;;;;5016997;28;20545;-81
2023/05/27 03:55:33;;;;;;;268.40;235.33;;;;;;;;;;5018157;28;20443;-81
2023/05/27 03:57:59;;;;;;;256.43;228.63;;;;;;;;;;5015650;28;20445;-82
2023/05/27 04:00:25;;;;;;;357.70;235.73;;;;;;;;;;5016484;28;20534;-82
2023/05/27 04:02:51;;;;;;;344.87;232.40;;;;;;;;;;5016029;28;20489;-81
2023/05/27 04:05:17;;;;;;;391.45;240.40;;;;;;;;;;5017284;28;20535;-82
2023/05/27 04:07:43;;;;;;;21.50;19.40;;;;;;;;;;5015587;28;20264;-82
2023/05/27 04:10:10;;;;;;;23.67;21.17;;;;;;;;;;5024977;28;20498;-82
2023/05/27 04:12:36;;;;;;;227.00;206.33;;;;;;;;;;5023184;28;20846;-81
2023/05/27 04:15:02;;;;;;;356.50;238.40;;;;;;;;;;5020342;28;20457;-82
2023/05/27 04:17:28;;;;;;;211.20;192.03;;;;;;;;;;5019650;28;20470;-81
2023/05/27 04:19:54;;;;;;;212.20;192.63;;;;;;;;;;5025529;28;20430;-81
2023/05/27 04:22:21;;;;;;;254.80;228.67;;;;;;;;;;5020656;28;20493;-81
2023/05/27 04:24:48;;;;;;;234.83;212.10;;;;;;;;;;5021909;28;20438;-81
2023/05/27 04:27:16;;;;;;;173.17;158.13;;;;;;;;;;5020692;28;20525;-81
2023/05/27 04:29:45;;;;;;;238.97;216.70;;;;;;;;;;5025319;28;20822;-81
2023/05/27 04:32:12;;;;;;;204.90;187.20;;;;;;;;;;5009267;28;20481;-81
2023/05/27 04:34:41;;;;;;;231.33;209.07;;;;;;;;;;5022722;28;20725;-80
2023/05/27 04:37:09;;;;;;;168.37;155.37;;;;;;;;;;5024969;28;20934;-81
2023/05/27 04:39:35;;;;;;;184.00;168.67;;;;;;;;;;5015390;28;20463;-81
2023/05/27 04:42:01;;;;;;;273.97;245.17;;;;;;;;;;5015254;28;20453;-80
2023/05/27 04:44:28;;;;;;;243.97;223.27;;;;;;;;;;5020892;28;20473;-80
2023/05/27 04:46:54;;;;;;;289.50;263.17;;;;;;;;;;5023943;28;20463;-81
2023/05/27 04:49:22;;;;;;;100.77;93.73;;;;;;;;;;5014939;28;20459;-81
2023/05/27 04:51:48;;;;;;;107.60;100.27;;;;;;;;;;5013437;28;20570;-80
2023/05/27 04:54:14;;;;;;;249.47;231.10;;;;;;;;;;5022784;28;20917;-81
2023/05/27 04:56:40;;;;;;;186.10;172.53;;;;;;;;;;5008649;28;20452;-82
2023/05/27 04:59:06;;;;;;;116.27;108.87;;;;;;;;;;5024505;28;20789;-82
2023/05/27 05:01:48;;;;;;;173.47;161.43;;;;;;;;;;5020152;28;21031;-80
2023/05/27 05:04:15;;;;;;;77.03;72.37;;;;;;;;;;5031856;28;20670;-82
2023/05/27 05:06:41;;;;;;;45.77;42.40;;;;;;;;;;5029619;28;20454;-80
2023/05/27 05:09:09;;;;;;;62.10;57.73;;;;;;;;;;5048939;28;20497;-83
2023/05/27 05:11:35;;;;;;;81.27;74.67;;;;;;;;;;5028686;28;20570;-82
2023/05/27 05:14:01;;;;;;;43.37;39.43;;;;;;;;;;5029822;28;20410;-83
2023/05/27 05:16:27;;;;;;;61.10;55.37;;;;;;;;;;5026657;28;20457;-82
2023/05/27 05:18:53;;;;;;;29.13;26.50;;;;;;;;;;5024103;28;20903;-82
2023/05/27 05:21:19;;;;;;;39.00;35.57;;;;;;;;;;5024767;28;20429;-84
2023/05/27 05:23:45;;;;;;;16.67;15.07;;;;;;;;;;5020837;28;20562;-82
2023/05/27 05:26:11;;;;;;;16.50;11.30;;;;;;;;;;5021004;28;21132;-83
2023/05/27 05:28:37;;;;;;;19.50;16.60;;;;;;;;;;5025332;28;20458;-83
2023/05/27 05:31:03;;;;;;;22.97;10.10;;;;;;;;;;5029001;28;20477;-83
2023/05/27 05:33:29;;;;;;;16.33;12.87;;;;;;;;;;5022562;28;20454;-83
2023/05/27 05:35:56;;;;;;;24.30;16.07;;;;;;;;;;5015503;28;20507;-84
2023/05/27 05:38:22;;;;;;;16.70;10.67;;;;;;;;;;5020329;28;20447;-83
2023/05/27 05:40:51;;;;;;;12.57;10.57;;;;;;;;;;5024437;28;20461;-83
2023/05/27 05:43:17;;;;;;;10.97;9.83;;;;;;;;;;5026225;28;20447;-80
2023/05/27 05:45:43;;;;;;;14.63;10.80;;;;;;;;;;5026828;28;20450;-77
2023/05/27 05:48:09;;;;;;;12.20;9.40;;;;;;;;;;5020654;28;20473;-78
2023/05/27 05:50:36;;;;;;;9.83;8.90;;;;;;;;;;5010154;28;20431;-76
2023/05/27 05:53:02;;;;;;;14.00;10.40;;;;;;;;;;5017977;28;21012;-83
2023/05/27 05:55:28;;;;;;;11.03;9.80;;;;;;;;;;5008833;28;20484;-84
2023/05/27 05:57:54;;;;;;;12.37;8.17;;;;;;;;;;5015804;28;20451;-85
2023/05/27 06:00:20;;;;;;;11.23;8.67;;;;;;;;;;5026357;28;20417;-84
2023/05/27 06:02:46;;;;;;;15.60;8.60;;;;;;;;;;5018566;28;20969;-83
2023/05/27 06:05:12;;;;;;;10.53;9.47;;;;;;;;;;5023048;28;20434;-84
2023/05/27 06:07:38;;;;;;;13.70;8.73;;;;;;;;;;5023877;28;20545;-84
2023/05/27 06:10:04;;;;;;;16.07;9.50;;;;;;;;;;5018275;28;20523;-78
2023/05/27 06:12:30;;;;;;;13.07;10.00;;;;;;;;;;5017725;28;20478;-78
2023/05/27 06:14:56;;;;;;;13.33;10.13;;;;;;;;;;5016485;28;20477;-79
2023/05/27 06:17:22;;;;;;;17.30;10.73;;;;;;;;;;5014446;28;20462;-80
2023/05/27 06:19:48;;;;;;;15.90;12.13;;;;;;;;;;5019208;28;20972;-79
2023/05/27 06:22:15;;;;;;;12.87;11.57;;;;;;;;;;5015866;28;20446;-79
2023/05/27 06:24:41;;;;;;;25.67;11.57;;;;;;;;;;5018866;28;20487;-77
2023/05/27 06:27:07;;;;;;;15.43;11.97;;;;;;;;;;5015544;28;20442;-80
2023/05/27 06:29:33;;;;;;;18.13;10.30;;;;;;;;;;5021684;28;20608;-78
2023/05/27 06:32:00;;;;;;;22.17;18.80;;;;;;;;;;5010837;28;20515;-79
2023/05/27 06:34:26;;;;;;;17.00;12.17;;;;;;;;;;5024132;28;20426;-78
2023/05/27 06:36:52;;;;;;;17.33;15.37;;;;;;;;;;5023297;28;20438;-77
2023/05/27 06:39:18;;;;;;;20.33;14.73;;;;;;;;;;5023126;28;20437;-76
2023/05/27 06:41:44;;;;;;;15.53;12.40;;;;;;;;;;5008840;28;20439;-77
2023/05/27 06:44:10;;;;;;;19.67;15.20;;;;;;;;;;5015493;28;20442;-78
2023/05/27 06:46:36;;;;;;;23.93;16.17;;;;;;;;;;5025748;28;20429;-79
2023/05/27 06:49:02;;;;;;;17.00;14.20;;;;;;;;;;5018444;28;20454;-78
2023/05/27 06:51:28;;;;;;;21.80;17.33;;;;;;;;;;5024343;28;20485;-79
2023/05/27 06:53:54;;;;;;;19.87;15.73;;;;;;;;;;5013785;28;20517;-78
2023/05/27 06:56:20;;;;;;;19.77;17.53;;;;;;;;;;5018730;28;20438;-77
2023/05/27 06:58:46;;;;;;;14.60;10.20;;;;;;;;;;5015188;28;20452;-77
2023/05/27 07:01:12;;;;;;;14.00;11.97;;;;;;;;;;5030889;28;20474;-80
2023/05/27 07:03:38;;;;;;;16.37;11.20;;;;;;;;;;5042224;28;20446;-78
2023/05/27 07:06:05;;;;;;;17.80;14.23;;;;;;;;;;5037378;28;20464;-78
2023/05/27 07:08:31;;;;;;;17.43;15.93;;;;;;;;;;5026845;28;20451;-79
2023/05/27 07:10:57;;;;;;;40.20;37.47;;;;;;;;;;5030259;28;20529;-84
2023/05/27 07:13:23;;;;;;;31.27;28.27;;;;;;;;;;5023797;28;20446;-84
2023/05/27 07:15:50;;;;;;;28.40;26.13;;;;;;;;;;5025881;28;20955;-85
2023/05/27 07:18:16;;;;;;;28.20;25.80;;;;;;;;;;5033339;28;20450;-85
2023/05/27 07:20:42;;;;;;;21.67;19.87;;;;;;;;;;5018282;28;20577;-84
2023/05/27 07:23:09;;;;;;;32.80;30.37;;;;;;;;;;5022392;28;20470;-82
2023/05/27 07:25:35;;;;;;;27.47;25.20;;;;;;;;;;5027946;28;20431;-85
2023/05/27 07:28:01;;;;;;;23.13;21.23;;;;;;;;;;5023855;28;20458;-85
2023/05/27 07:30:27;;;;;;;33.97;31.57;;;;;;;;;;5027395;28;20432;-78
2023/05/27 07:32:53;;;;;;;33.70;31.00;;;;;;;;;;5019318;28;20500;-80
2023/05/27 07:35:20;;;;;;;32.23;29.23;;;;;;;;;;5022403;28;20436;-79
2023/05/27 07:37:46;;;;;;;35.73;32.73;;;;;;;;;;5020971;28;20457;-78
2023/05/27 07:40:12;;;;;;;48.10;44.30;;;;;;;;;;5025309;28;20395;-78
2023/05/27 07:42:38;;;;;;;31.33;29.13;;;;;;;;;;5014616;28;20947;-77
2023/05/27 07:45:05;;;;;;;20.53;18.33;;;;;;;;;;5031142;28;20489;-78
2023/05/27 07:47:31;;;;;;;31.03;27.30;;;;;;;;;;5024055;28;20481;-77
2023/05/27 07:49:57;;;;;;;17.97;16.27;;;;;;;;;;5019726;28;20501;-78
2023/05/27 07:52:23;;;;;;;21.00;18.80;;;;;;;;;;5013022;28;20466;-77
2023/05/27 07:54:49;;;;;;;39.90;37.03;;;;;;;;;;5021460;28;20427;-76
2023/05/27 07:57:16;;;;;;;22.20;19.30;;;;;;;;;;5012773;28;20459;-78
2023/05/27 07:59:43;;;;;;;43.90;40.70;;;;;;;;;;5031035;28;20447;-77
2023/05/27 08:02:09;;;;;;;19.30;16.70;;;;;;;;;;5020459;28;21001;-76
2023/05/27 08:04:35;;;;;;;18.00;16.30;;;;;;;;;;5015880;28;20442;-78
2023/05/27 08:07:01;;;;;;;44.10;40.53;;;;;;;;;;5022832;28;20434;-83
2023/05/27 08:09:27;;;;;;;18.50;16.43;;;;;;;;;;5025227;28;20468;-78
2023/05/27 08:11:53;;;;;;;26.40;23.87;;;;;;;;;;5030412;28;20520;-80
2023/05/27 08:14:20;;;;;;;15.97;13.13;;;;;;;;;;5026596;28;20832;-80
2023/05/27 08:16:46;;;;;;;15.63;14.27;;;;;;;;;;5018577;28;21072;-78
2023/05/27 08:19:13;;;;;;;18.03;16.23;;;;;;;;;;5022911;28;20937;-78
2023/05/27 08:21:39;;;;;;;14.97;13.43;;;;;;;;;;5022876;28;20442;-81
2023/05/27 08:24:05;;;;;;;23.60;21.27;;;;;;;;;;5018098;28;20449;-81
2023/05/27 08:26:31;;;;;;;22.07;20.00;;;;;;;;;;5011726;28;20537;-80
2023/05/27 08:28:57;;;;;;;24.70;22.53;;;;;;;;;;5020965;28;20487;-80
2023/05/27 08:31:23;;;;;;;30.63;28.13;;;;;;;;;;5017101;28;20463;-75
2023/05/27 08:33:49;;;;;;;31.50;28.70;;;;;;;;;;5018235;28;20943;-77
2023/05/27 08:36:18;;;;;;;53.27;49.67;;;;;;;;;;5022960;28;20442;-77
2023/05/27 08:38:44;;;;;;;61.67;57.80;;;;;;;;;;5018321;28;20808;-79
2023/05/27 08:41:10;;;;;;;102.03;96.80;;;;;;;;;;5024766;28;20431;-86
2023/05/27 08:43:36;;;;;;;133.60;126.90;;;;;;;;;;5037014;28;20440;-84
2023/05/27 08:46:02;;;;;;;95.93;90.97;;;;;;;;;;5042478;28;20469;-84
2023/05/27 08:48:28;;;;;;;96.27;90.97;;;;;;;;;;5033838;28;20446;-85
2023/05/27 08:50:54;;;;;;;149.70;142.73;;;;;;;;;;5027104;28;20424;-85
2023/05/27 08:53:21;;;;;;;37.83;34.87;;;;;;;;;;5021352;28;20462;-84
2023/05/27 08:55:48;;;;;;;18.07;16.30;;;;;;;;;;5016475;28;20825;-84
2023/05/27 08:58:16;;;;;;;67.70;63.83;;;;;;;;;;5032625;28;20561;-82
2023/05/27 09:00:42;;;;;;;54.83;51.10;;;;;;;;;;5045059;28;20442;-84
2023/05/27 09:03:09;;;;;;;38.90;36.00;;;;;;;;;;5047582;28;20441;-83
2023/05/27 09:05:36;;;;;;;34.43;31.93;;;;;;;;;;5038450;28;20871;-85
2023/05/27 09:08:02;;;;;;;20.00;17.93;;;;;;;;;;5020353;28;20463;-83
2023/05/27 09:10:37;;;;;;;21.07;18.83;;;;;;;;;;5028758;28;20462;-83
2023/05/27 09:13:03;;;;;;;24.20;22.10;;;;;;;;;;5017789;28;20508;-84
2023/05/27 09:15:31;;;;;;;21.07;19.17;;;;;;;;;;5016074;28;20465;-84
2023/05/27 09:17:57;;;;;;;15.47;13.40;;;;;;;;;;5024059;28;20435;-79
2023/05/27 09:20:27;;;;;;;17.47;15.73;;;;;;;;;;5021156;28;20836;-76
2023/05/27 09:22:57;;;;;;;19.30;17.53;;;;;;;;;;5028785;28;20454;-77
2023/05/27 09:25:24;;;;;;;22.87;20.80;;;;;;;;;;5017096;28;20454;-78
2023/05/27 09:27:50;;;;;;;26.97;24.43;;;;;;;;;;5022442;28;20439;-78
2023/05/27 09:30:19;;;;;;;17.10;15.37;;;;;;;;;;5021511;28;20449;-79
2023/05/27 09:32:47;;;;;;;14.70;11.53;;;;;;;;;;5024790;28;20469;-84
2023/05/27 09:35:15;;;;;;;19.23;17.53;;;;;;;;;;5020151;28;20750;-84
2023/05/27 09:37:43;;;;;;;16.67;9.60;;;;;;;;;;5023096;28;20476;-87
2023/05/27 09:40:10;;;;;;;15.60;13.93;;;;;;;;;;5022585;28;20458;-88
2023/05/27 09:42:54;;;;;;;21.20;19.20;;;;;;;;;;5032016;28;20470;-85
2023/05/27 09:45:21;;;;;;;23.47;21.30;;;;;;;;;;5028822;28;20545;-85
2023/05/27 09:47:53;;;;;;;20.77;18.77;;;;;;;;;;5019805;28;20478;-82
2023/05/27 09:50:20;;;;;;;35.80;33.37;;;;;;;;;;5017307;28;20444;-83
2023/05/27 09:52:47;;;;;;;23.30;17.53;;;;;;;;;;5023529;28;20822;-82
2023/05/27 09:55:14;;;;;;;19.17;17.13;;;;;;;;;;5011088;28;20432;-82
2023/05/27 09:57:40;;;;;;;14.07;12.70;;;;;;;;;;5014267;28;20433;-82
2023/05/27 10:00:17;;;;;;;12.80;11.40;;;;;;;;;;5013458;28;20455;-82
2023/05/27 10:02:45;;;;;;;16.60;14.27;;;;;;;;;;5020632;28;20444;-82
2023/05/27 10:05:12;;;;;;;22.87;20.70;;;;;;;;;;5015221;28;20477;-83
2023/05/27 10:07:39;;;;;;;15.00;13.40;;;;;;;;;;5012822;28;20430;-84
2023/05/27 10:10:06;;;;;;;31.80;29.30;;;;;;;;;;5020154;28;20464;-83
2023/05/27 10:12:33;;;;;;;123.00;116.87;;;;;;;;;;5035324;28;20462;-85
2023/05/27 10:14:59;;;;;;;76.37;72.13;;;;;;;;;;5025800;28;20478;-85
2023/05/27 10:17:25;;;;;;;105.73;100.27;;;;;;;;;;5024740;28;20553;-85
2023/05/27 10:19:55;;;;;;;19.27;17.83;;;;;;;;;;5030177;28;20885;-84
2023/05/27 10:22:22;;;;;;;18.33;16.87;;;;;;;;;;5014804;28;20837;-85
2023/05/27 10:24:49;;;;;;;124.87;118.87;;;;;;;;;;5021227;28;20517;-86
2023/05/27 10:27:16;;;;;;;98.87;93.60;;;;;;;;;;5021214;28;20422;-85
2023/05/27 10:29:42;;;;;;;139.33;132.63;;;;;;;;;;5021363;28;21562;-83
2023/05/27 10:32:10;;;;;;;85.80;81.37;;;;;;;;;;5018275;28;20507;-85
2023/05/27 10:34:37;;;;;;;71.77;67.73;;;;;;;;;;5019601;28;20449;-85
2023/05/27 10:37:03;;;;;;;21.40;19.40;;;;;;;;;;5022639;28;21150;-84
2023/05/27 10:39:29;;;;;;;46.37;41.43;;;;;;;;;;5021147;28;20894;-85
2023/05/27 10:41:59;;;;;;;15.43;13.97;;;;;;;;;;5026109;28;20552;-85
2023/05/27 10:44:36;;;;;;;39.23;35.90;;;;;;;;;;5004700;28;20942;-85
2023/05/27 10:47:02;;;;;;;71.63;67.50;;;;;;;;;;5026094;28;20426;-84
2023/05/27 10:49:35;;;;;;;48.50;44.57;;;;;;;;;;5025815;28;20434;-83
2023/05/27 10:52:06;;;;;;;23.73;21.53;;;;;;;;;;5022165;28;20499;-83
2023/05/27 10:54:35;;;;;;;55.60;51.13;;;;;;;;;;5024989;28;20519;-83
2023/05/27 10:57:02;;;;;;;80.80;76.40;;;;;;;;;;5036094;28;20444;-84
2023/05/27 10:59:33;;;;;;;59.87;55.47;;;;;;;;;;5045256;28;20427;-83
2023/05/27 11:01:59;;;;;;;48.40;45.50;;;;;;;;;;5028444;28;20435;-83
2023/05/27 11:04:26;;;;;;;64.87;60.37;;;;;;;;;;5028980;28;20567;-82
2023/05/27 11:07:01;;;;;;;35.10;32.93;;;;;;;;;;5034574;28;20526;-83
2023/05/27 11:09:27;;;;;;;64.73;58.83;;;;;;;;;;5018454;28;20442;-81
2023/05/27 11:11:56;;;;;;;18.17;16.33;;;;;;;;;;5024476;28;20861;-82
2023/05/27 11:14:23;;;;;;;84.00;78.63;;;;;;;;;;5029741;28;20827;-79
2023/05/27 11:16:53;;;;;;;103.30;98.13;;;;;;;;;;5029293;28;20461;-82
2023/05/27 11:19:21;;;;;;;138.23;131.27;;;;;;;;;;5026392;28;20443;-83
2023/05/27 11:21:47;;;;;;;155.37;148.03;;;;;;;;;;5031293;28;20454;-83
2023/05/27 11:24:20;;;;;;;96.90;91.93;;;;;;;;;;5029192;28;20438;-82
2023/05/27 11:26:46;;;;;;;127.60;121.17;;;;;;;;;;5034097;28;20458;-82
2023/05/27 11:29:13;;;;;;;63.57;60.00;;;;;;;;;;5029252;28;20435;-86
2023/05/27 11:31:42;;;;;;;13.03;11.80;;;;;;;;;;5029196;28;20557;-84
2023/05/27 11:34:15;;;;;;;21.37;19.27;;;;;;;;;;5028159;28;20478;-84
2023/05/27 11:36:44;;;;;;;25.70;21.70;;;;;;;;;;5026435;28;20431;-85
2023/05/27 11:39:18;;;;;;;24.60;22.90;;;;;;;;;;5034397;28;20449;-85
2023/05/27 11:41:51;;;;;;;29.87;27.13;;;;;;;;;;5030568;28;20442;-86
2023/05/27 11:44:18;;;;;;;20.13;18.27;;;;;;;;;;5026919;28;20461;-84
2023/05/27 11:46:45;;;;;;;76.87;73.07;;;;;;;;;;5030383;28;20497;-83
2023/05/27 11:49:11;;;;;;;40.03;37.13;;;;;;;;;;5028029;28;20517;-83
2023/05/27 11:51:39;;;;;;;82.20;77.80;;;;;;;;;;5030599;28;20481;-85
2023/05/27 11:54:05;;;;;;;62.40;58.93;;;;;;;;;;5023157;28;20471;-86
2023/05/27 11:56:31;;;;;;;118.03;111.77;;;;;;;;;;5029361;28;20450;-85
2023/05/27 11:58:57;;;;;;;27.00;24.73;;;;;;;;;;5027131;28;20542;-86
2023/05/27 12:01:24;;;;;;;43.00;39.90;;;;;;;;;;5030388;28;20794;-87
2023/05/27 12:03:49;;;;;;;12.97;11.90;;;;;;;;;;5028527;28;20446;-86
2023/05/27 12:06:16;;;;;;;18.30;16.83;;;;;;;;;;5030364;28;20568;-87
2023/05/27 12:08:42;;;;;;;37.87;35.53;;;;;;;;;;5035463;28;20443;-86
2023/05/27 12:11:08;;;;;;;85.27;81.10;;;;;;;;;;5038415;28;20451;-85
2023/05/27 12:13:34;;;;;;;50.03;47.47;;;;;;;;;;5031502;28;20474;-85
2023/05/27 12:16:00;;;;;;;23.60;21.53;;;;;;;;;;5032289;28;20457;-87
2023/05/27 12:18:26;;;;;;;14.53;13.20;;;;;;;;;;5029217;28;20545;-86
2023/05/27 12:20:52;;;;;;;13.57;12.33;;;;;;;;;;5032242;28;20450;-84
2023/05/27 12:23:18;;;;;;;54.27;50.07;;;;;;;;;;5026690;28;20941;-86
2023/05/27 12:25:44;;;;;;;17.13;15.40;;;;;;;;;;5034971;28;20480;-88
2023/05/27 12:28:10;;;;;;;33.53;29.93;;;;;;;;;;5025988;28;20431;-87
2023/05/27 12:30:37;;;;;;;19.00;17.23;;;;;;;;;;5031782;28;20431;-86
2023/05/27 12:33:06;;;;;;;20.27;18.63;;;;;;;;;;5019464;28;20458;-84
2023/05/27 12:35:33;;;;;;;12.20;11.17;;;;;;;;;;5038041;28;20438;-87
2023/05/27 12:37:59;;;;;;;12.07;11.00;;;;;;;;;;5034299;28;20500;-85
2023/05/27 12:40:26;;;;;;;13.20;11.87;;;;;;;;;;5032212;28;20431;-85
2023/05/27 12:42:52;;;;;;;13.97;12.67;;;;;;;;;;5039834;28;20452;-84
2023/05/27 12:45:21;;;;;;;12.77;11.50;;;;;;;;;;5042837;28;21144;-84
2023/05/27 12:47:47;;;;;;;12.93;11.93;;;;;;;;;;5028459;28;20496;-87
2023/05/27 12:50:13;;;;;;;9.60;8.70;;;;;;;;;;5039544;28;20421;-84
2023/05/27 12:52:45;;;;;;;12.97;11.83;;;;;;;;;;5051495;28;20766;-85
2023/05/27 12:55:11;;;;;;;11.23;10.23;;;;;;;;;;5053540;28;20434;-85
2023/05/27 12:57:37;;;;;;;11.90;10.90;;;;;;;;;;5048228;28;20521;-87
2023/05/27 13:00:04;;;;;;;11.63;8.60;;;;;;;;;;5049117;28;20473;-88
2023/05/27 13:02:30;;;;;;;10.97;9.57;;;;;;;;;;5044686;28;20434;-87
2023/05/27 13:04:59;;;;;;;12.33;10.80;;;;;;;;;;5043238;28;20434;-86
2023/05/27 13:07:25;;;;;;;10.70;8.73;;;;;;;;;;5040019;28;20836;-87
2023/05/27 13:09:51;;;;;;;8.47;7.87;;;;;;;;;;5031027;28;20459;-84
2023/05/27 13:12:18;;;;;;;8.70;8.10;;;;;;;;;;5032812;28;20964;-85
2023/05/27 13:14:44;;;;;;;12.63;7.10;;;;;;;;;;5030544;28;20440;-83
2023/05/27 13:17:10;;;;;;;9.80;8.80;;;;;;;;;;5014290;28;20428;-84
2023/05/27 13:19:36;;;;;;;8.47;7.67;;;;;;;;;;5021891;28;20460;-84
2023/05/27 13:22:03;;;;;;;12.77;10.50;;;;;;;;;;5022118;28;20443;-83
2023/05/27 13:24:29;;;;;;;10.60;9.60;;;;;;;;;;5025738;28;20446;-83
2023/05/27 13:26:55;;;;;;;9.13;8.33;;;;;;;;;;5025856;28;20642;-84
2023/05/27 13:29:21;;;;;;;10.63;7.60;;;;;;;;;;5031235;28;20541;-83
2023/05/27 13:31:47;;;;;;;9.33;8.30;;;;;;;;;;5015188;28;20551;-84
2023/05/27 13:34:13;;;;;;;9.93;8.93;;;;;;;;;;5022486;28;20449;-80
2023/05/27 13:36:39;;;;;;;9.57;8.60;;;;;;;;;;5022368;28;20852;-83
2023/05/27 13:39:05;;;;;;;9.83;9.00;;;;;;;;;;5023102;28;20503;-84
2023/05/27 13:41:31;;;;;;;10.17;9.27;;;;;;;;;;5024863;28;20446;-84
2023/05/27 13:43:57;;;;;;;9.63;8.80;;;;;;;;;;5025669;28;20450;-83
2023/05/27 13:46:23;;;;;;;13.73;11.23;;;;;;;;;;5018429;28;20938;-84
2023/05/27 13:48:49;;;;;;;8.90;7.87;;;;;;;;;;5023159;28;20514;-85
2023/05/27 13:51:15;;;;;;;9.40;8.67;;;;;;;;;;5019088;28;20427;-82
2023/05/27 13:53:41;;;;;;;9.83;9.00;;;;;;;;;;5014176;28;20431;-84
2023/05/27 13:56:07;;;;;;;13.27;11.93;;;;;;;;;;5033454;28;20423;-83
2023/05/27 13:58:33;;;;;;;7.70;7.00;;;;;;;;;;5026084;28;22044;-84
2023/05/27 14:00:59;;;;;;;10.93;10.00;;;;;;;;;;5031579;28;20465;-82
2023/05/27 14:03:25;;;;;;;9.47;8.50;;;;;;;;;;5032555;28;20540;-84
2023/05/27 14:05:51;;;;;;;8.70;7.73;;;;;;;;;;5022323;28;20958;-83
2023/05/27 14:08:17;;;;;;;10.60;9.60;;;;;;;;;;5013763;28;20442;-83
2023/05/27 14:10:43;;;;;;;13.50;12.10;;;;;;;;;;5024663;28;20463;-83